createdAt,value
2023-02-11T00:00:42.879Z,54.70
2023-02-11T00:03:11.128Z,55.35
2023-02-11T00:05:39.447Z,51.38
2023-02-11T00:08:07.420Z,48.90
2023-02-11T00:10:35.468Z,46.55
2023-02-11T00:13:03.572Z,49.97
2023-02-11T00:15:31.545Z,49.30
2023-02-11T00:18:00.973Z,50.13
2023-02-11T00:20:28.951Z,46.47
2023-02-11T00:22:57.000Z,47.63
2023-02-11T00:25:24.976Z,47.42
2023-02-11T00:27:52.949Z,49.00
2023-02-11T00:30:21.144Z,49.50
2023-02-11T00:32:49.253Z,48.03
2023-02-11T00:35:18.856Z,47.13
2023-02-11T00:37:46.851Z,47.00
2023-02-11T00:40:16.061Z,47.72
2023-02-11T00:42:44.142Z,48.83
2023-02-11T00:45:12.128Z,50.50
2023-02-11T00:47:40.179Z,48.45
2023-02-11T00:50:09.053Z,51.05
2023-02-11T00:52:38.569Z,50.65
2023-02-11T00:55:07.765Z,50.15
2023-02-11T00:57:35.841Z,53.90
2023-02-11T01:00:04.260Z,55.03
2023-02-11T01:02:32.291Z,56.75
2023-02-11T01:05:03.421Z,57.00
2023-02-11T01:07:31.610Z,58.60
2023-02-11T01:10:01.080Z,60.75
2023-02-11T01:12:29.184Z,74.03
2023-02-11T01:14:57.299Z,66.25
2023-02-11T01:17:25.378Z,62.80
2023-02-11T01:19:53.375Z,56.40
2023-02-11T01:22:21.403Z,51.78
2023-02-11T01:24:49.703Z,52.63
2023-02-11T01:27:19.183Z,48.95
2023-02-11T01:29:47.227Z,46.70
2023-02-11T01:32:15.372Z,46.40
2023-02-11T01:34:43.512Z,47.53
2023-02-11T01:37:11.599Z,48.38
2023-02-11T01:39:39.952Z,46.40
2023-02-11T01:42:08.469Z,47.30
2023-02-11T01:44:41.273Z,49.03
2023-02-11T01:47:09.804Z,47.70
2023-02-11T01:49:42.697Z,47.47
2023-02-11T01:52:13.659Z,49.05
2023-02-11T01:55:03.104Z,47.22
2023-02-11T01:57:33.581Z,48.80
2023-02-11T02:00:11.432Z,47.83
2023-02-11T02:02:45.393Z,55.53
2023-02-11T02:05:24.135Z,56.97
2023-02-11T02:08:00.251Z,55.55
2023-02-11T02:10:30.286Z,53.50
2023-02-11T02:12:58.788Z,53.33
2023-02-11T02:15:31.020Z,50.83
2023-02-11T02:18:10.215Z,52.20
2023-02-11T02:21:14.195Z,53.17
2023-02-11T02:24:17.730Z,50.92
2023-02-11T02:27:04.794Z,49.80
2023-02-11T02:30:16.998Z,49.40
2023-02-11T02:32:54.642Z,49.90
2023-02-11T02:35:34.741Z,50.72
2023-02-11T02:38:06.363Z,51.35
2023-02-11T02:40:40.085Z,51.05
2023-02-11T02:43:11.895Z,50.93
2023-02-11T02:45:40.068Z,51.45
2023-02-11T02:48:26.031Z,50.42
2023-02-11T02:51:01.987Z,52.70
2023-02-11T02:53:41.393Z,53.83
2023-02-11T02:56:14.408Z,52.47
2023-02-11T02:59:02.458Z,50.00
2023-02-11T03:01:39.123Z,48.45
2023-02-11T03:04:19.065Z,48.35
2023-02-11T03:06:54.204Z,47.10
2023-02-11T03:09:28.185Z,44.70
2023-02-11T03:11:56.854Z,45.78
2023-02-11T03:14:28.238Z,45.97
2023-02-11T03:16:58.829Z,46.17
2023-02-11T03:19:31.748Z,45.92
2023-02-11T03:22:00.507Z,45.97
2023-02-11T03:24:32.179Z,43.47
2023-02-11T03:27:06.504Z,42.25
2023-02-11T03:29:37.933Z,42.88
2023-02-11T03:32:16.182Z,42.88
2023-02-11T03:34:49.428Z,42.95
2023-02-11T03:37:21.072Z,41.17
2023-02-11T03:39:54.889Z,43.05
2023-02-11T03:42:25.774Z,41.50
2023-02-11T03:44:59.524Z,42.22
2023-02-11T03:47:31.281Z,42.67
2023-02-11T03:50:02.197Z,41.45
2023-02-11T03:52:31.672Z,42.88
2023-02-11T03:55:04.038Z,43.28
2023-02-11T03:57:34.285Z,43.05
2023-02-11T04:00:02.520Z,55.25
2023-02-11T04:02:33.190Z,52.50
2023-02-11T04:05:03.160Z,51.50
2023-02-11T04:07:31.105Z,47.55
2023-02-11T04:09:59.209Z,47.67
2023-02-11T04:12:27.553Z,45.63
2023-02-11T04:14:55.663Z,51.72
2023-02-11T04:17:23.685Z,54.72
2023-02-11T04:19:51.660Z,50.88
2023-02-11T04:22:21.126Z,55.55
2023-02-11T04:24:49.141Z,55.22
2023-02-11T04:27:17.205Z,50.25
2023-02-11T04:29:45.426Z,49.53
2023-02-11T04:32:13.734Z,47.97
2023-02-11T04:34:41.787Z,44.10
2023-02-11T04:37:09.895Z,47.17
2023-02-11T04:39:39.405Z,47.38
2023-02-11T04:42:07.664Z,46.42
2023-02-11T04:44:35.717Z,48.22
2023-02-11T04:47:03.770Z,49.58
2023-02-11T04:49:32.234Z,50.50
2023-02-11T04:52:00.506Z,46.92
2023-02-11T04:54:28.744Z,46.97
2023-02-11T04:56:58.256Z,46.88
2023-02-11T04:59:26.264Z,47.10
2023-02-11T05:01:54.320Z,48.25
2023-02-11T05:04:22.709Z,48.30
2023-02-11T05:06:50.943Z,45.83
2023-02-11T05:09:18.955Z,47.88
2023-02-11T05:11:47.067Z,48.50
2023-02-11T05:14:16.580Z,47.20
2023-02-11T05:16:44.721Z,49.92
2023-02-11T05:19:12.762Z,46.75
2023-02-11T05:21:53.111Z,47.58
2023-02-11T05:24:24.949Z,42.33
2023-02-11T05:26:53.084Z,42.65
2023-02-11T05:29:22.655Z,46.33
2023-02-11T05:31:50.776Z,46.88
2023-02-11T05:34:18.802Z,41.88
2023-02-11T05:36:46.901Z,41.97
2023-02-11T05:39:15.039Z,40.45
2023-02-11T05:41:43.109Z,42.45
2023-02-11T05:44:11.285Z,41.95
2023-02-11T05:46:40.830Z,41.17
2023-02-11T05:49:08.963Z,41.90
2023-02-11T05:51:37.025Z,44.25
2023-02-11T05:54:05.184Z,45.55
2023-02-11T05:56:33.265Z,43.75
2023-02-11T05:59:01.416Z,42.00
2023-02-11T06:01:29.503Z,41.42
2023-02-11T06:03:59.106Z,41.97
2023-02-11T06:06:27.233Z,44.78
2023-02-11T06:08:56.472Z,40.80
2023-02-11T06:11:24.636Z,41.70
2023-02-11T06:13:52.746Z,43.83
2023-02-11T06:16:20.756Z,43.30
2023-02-11T06:18:48.863Z,41.55
2023-02-11T06:21:18.331Z,40.13
2023-02-11T06:23:46.425Z,40.17
2023-02-11T06:26:19.238Z,135.73
2023-02-11T06:28:47.488Z,95.97
2023-02-11T06:31:15.927Z,167.85
2023-02-11T06:33:44.112Z,72.50
2023-02-11T06:36:16.090Z,62.47
2023-02-11T06:38:46.302Z,52.95
2023-02-11T06:41:15.767Z,53.42
2023-02-11T06:43:44.541Z,48.75
2023-02-11T06:46:12.721Z,48.85
2023-02-11T06:48:43.069Z,48.30
2023-02-11T06:51:14.868Z,49.83
2023-02-11T06:53:46.250Z,50.72
2023-02-11T06:56:19.106Z,52.38
2023-02-11T06:58:47.814Z,51.17
2023-02-11T07:01:17.714Z,49.22
2023-02-11T07:03:47.046Z,52.45
2023-02-11T07:06:17.567Z,52.50
2023-02-11T07:08:47.648Z,52.80
2023-02-11T07:11:17.950Z,51.40
2023-02-11T07:13:46.457Z,53.28
2023-02-11T07:16:16.828Z,61.10
2023-02-11T07:18:45.553Z,60.33
2023-02-11T07:21:15.338Z,60.28
2023-02-11T07:23:43.389Z,55.58
2023-02-11T07:26:16.028Z,58.60
2023-02-11T07:28:44.929Z,61.45
2023-02-11T07:31:15.495Z,53.40
2023-02-11T07:33:45.910Z,53.55
2023-02-11T07:36:16.433Z,54.90
2023-02-11T07:38:45.356Z,52.60
2023-02-11T07:41:17.265Z,54.00
2023-02-11T07:43:45.786Z,53.22
2023-02-11T07:46:15.869Z,51.33
2023-02-11T07:48:44.221Z,53.53
2023-02-11T07:51:14.620Z,54.05
2023-02-11T07:53:42.726Z,53.75
2023-02-11T07:56:12.288Z,50.58
2023-02-11T07:58:43.182Z,47.38
2023-02-11T08:01:14.012Z,48.20
2023-02-11T08:03:42.955Z,49.40
2023-02-11T08:06:12.750Z,50.67
2023-02-11T08:08:41.674Z,50.40
2023-02-11T08:11:10.653Z,50.92
2023-02-11T08:13:38.874Z,44.67
2023-02-11T08:16:11.788Z,41.60
2023-02-11T08:18:39.781Z,42.28
2023-02-11T08:21:09.420Z,42.95
2023-02-11T08:23:38.568Z,39.30
2023-02-11T08:26:07.811Z,37.67
2023-02-11T08:28:40.009Z,35.28
2023-02-11T08:31:11.269Z,31.77
2023-02-11T08:33:40.988Z,32.72
2023-02-11T08:36:13.024Z,34.20
2023-02-11T08:38:41.217Z,30.38
2023-02-11T08:41:09.938Z,27.67
2023-02-11T08:43:41.712Z,27.35
2023-02-11T08:46:14.517Z,30.02
2023-02-11T08:48:42.650Z,30.80
2023-02-11T08:51:12.761Z,30.60
2023-02-11T08:53:40.996Z,32.05
2023-02-11T08:56:13.502Z,35.90
2023-02-11T08:58:41.942Z,33.67
2023-02-11T09:01:16.349Z,29.95
2023-02-11T09:03:44.604Z,33.67
2023-02-11T09:06:13.929Z,32.72
2023-02-11T09:08:46.360Z,30.65
2023-02-11T09:11:15.141Z,29.85
2023-02-11T09:13:44.527Z,31.83
2023-02-11T09:16:19.364Z,32.28
2023-02-11T09:21:17.398Z,31.80
2023-02-11T09:23:47.796Z,32.60
2023-02-11T09:26:19.737Z,30.15
2023-02-11T09:28:48.620Z,30.98
2023-02-11T09:31:21.153Z,27.58
2023-02-11T09:33:51.721Z,26.73
2023-02-11T09:36:21.760Z,27.58
2023-02-11T09:38:50.432Z,27.33
2023-02-11T09:41:37.052Z,26.63
2023-02-11T09:44:08.735Z,22.83
2023-02-11T09:46:42.513Z,24.10
2023-02-11T09:49:19.386Z,23.92
2023-02-11T09:51:50.855Z,25.88
2023-02-11T09:54:24.649Z,25.60
2023-02-11T09:56:52.889Z,22.70
2023-02-11T09:59:21.068Z,21.77
2023-02-11T10:01:54.576Z,21.55
2023-02-11T10:04:36.345Z,19.45
2023-02-11T10:07:12.827Z,17.13
2023-02-11T10:10:02.928Z,18.75
2023-02-11T10:12:44.876Z,18.10
2023-02-11T10:15:22.802Z,17.00
2023-02-11T10:18:08.772Z,15.10
2023-02-11T10:20:39.616Z,15.68
2023-02-11T10:23:15.062Z,17.33
2023-02-11T10:25:45.951Z,15.40
2023-02-11T10:28:17.082Z,16.92
2023-02-11T10:30:51.123Z,16.35
2023-02-11T10:33:25.885Z,16.80
2023-02-11T10:35:54.125Z,16.70
2023-02-11T10:38:22.237Z,17.55
2023-02-11T10:40:50.713Z,16.35
2023-02-11T10:43:22.577Z,16.55
2023-02-11T10:45:53.006Z,14.77
2023-02-11T10:48:42.911Z,18.15
2023-02-11T10:51:19.875Z,16.70
2023-02-11T10:53:49.183Z,16.10
2023-02-11T10:56:24.857Z,15.35
2023-02-11T10:58:58.902Z,16.42
2023-02-11T11:01:41.179Z,17.67
2023-02-11T11:04:40.878Z,17.20
2023-02-11T11:07:19.200Z,16.88
2023-02-11T11:09:52.394Z,19.25
2023-02-11T11:12:48.834Z,16.90
2023-02-11T11:15:22.103Z,18.17
2023-02-11T11:17:50.634Z,19.15
2023-02-11T11:20:36.308Z,18.85
2023-02-11T11:23:18.124Z,19.60
2023-02-11T11:25:59.468Z,20.08
2023-02-11T11:28:30.864Z,20.70
2023-02-11T11:31:01.089Z,19.73
2023-02-11T11:33:31.504Z,21.10
2023-02-11T11:36:06.096Z,20.98
2023-02-11T11:38:36.248Z,20.60
2023-02-11T11:41:18.928Z,20.52
2023-02-11T11:43:58.040Z,21.35
2023-02-11T11:46:28.938Z,20.02
2023-02-11T11:49:04.782Z,21.17
2023-02-11T11:51:36.191Z,21.77
2023-02-11T11:54:08.017Z,21.92
2023-02-11T11:56:40.832Z,21.65
2023-02-11T11:59:16.651Z,21.60
2023-02-11T12:02:03.244Z,20.63
2023-02-11T12:04:57.682Z,19.20
2023-02-11T12:07:42.858Z,19.50
2023-02-11T12:10:32.908Z,18.20
2023-02-11T12:13:13.259Z,18.13
2023-02-11T12:15:50.862Z,17.23
2023-02-11T12:18:38.767Z,18.20
2023-02-11T12:21:34.022Z,16.45
2023-02-11T12:24:19.033Z,17.30
2023-02-11T12:26:53.684Z,17.30
2023-02-11T12:29:33.297Z,17.65
2023-02-11T12:32:16.305Z,17.35
2023-02-11T12:35:13.550Z,17.60
2023-02-11T12:37:58.002Z,16.70
2023-02-11T12:40:37.435Z,17.40
2023-02-11T12:43:16.655Z,17.13
2023-02-11T12:46:29.123Z,16.42
2023-02-11T12:49:20.831Z,16.38
2023-02-11T12:52:01.656Z,17.27
2023-02-11T12:54:33.211Z,15.57
2023-02-11T12:57:11.295Z,17.13
2023-02-11T12:59:50.728Z,16.85
2023-02-11T13:02:31.775Z,16.65
2023-02-11T13:05:05.369Z,16.23
2023-02-11T13:07:39.535Z,17.13
2023-02-11T13:10:28.120Z,17.67
2023-02-11T13:13:18.152Z,18.08
2023-02-11T13:15:52.095Z,18.35
2023-02-11T13:18:45.975Z,18.30
2023-02-11T13:21:47.982Z,18.58
2023-02-11T13:24:28.978Z,18.40
2023-02-11T13:27:08.332Z,19.20
2023-02-11T13:30:04.384Z,19.90
2023-02-11T13:33:06.652Z,19.23
2023-02-11T13:35:36.201Z,19.30
2023-02-11T13:38:06.278Z,18.85
2023-02-11T13:40:36.640Z,19.75
2023-02-11T13:43:07.236Z,18.77
2023-02-11T13:45:42.587Z,20.45
2023-02-11T13:48:20.806Z,19.05
2023-02-11T13:50:52.391Z,20.27
2023-02-11T13:53:21.657Z,19.42
2023-02-11T13:55:52.575Z,19.27
2023-02-11T13:58:37.275Z,20.23
2023-02-11T14:01:07.264Z,20.30
2023-02-11T14:03:55.386Z,19.77
2023-02-11T14:06:43.665Z,20.33
2023-02-11T14:09:40.154Z,20.92
2023-02-11T14:12:36.205Z,20.25
2023-02-11T14:15:28.729Z,21.35
2023-02-11T14:17:58.162Z,20.38
2023-02-11T14:20:44.626Z,21.48
2023-02-11T14:23:25.696Z,21.02
2023-02-11T14:26:07.037Z,20.90
2023-02-11T14:28:36.141Z,20.42
2023-02-11T14:31:11.665Z,21.02
2023-02-11T14:34:23.975Z,20.70
2023-02-11T14:37:07.280Z,21.65
2023-02-11T14:39:49.587Z,22.23
2023-02-11T14:42:21.065Z,24.20
2023-02-11T14:44:51.847Z,21.60
2023-02-11T14:47:23.789Z,22.60
2023-02-11T14:49:52.086Z,22.92
2023-02-11T14:52:28.857Z,24.00
2023-02-11T14:55:07.301Z,21.50
2023-02-11T14:57:35.378Z,25.58
2023-02-11T15:00:06.133Z,24.17
2023-02-11T15:02:36.690Z,24.55
2023-02-11T15:05:20.164Z,24.98
2023-02-11T15:07:52.962Z,25.80
2023-02-11T15:10:28.308Z,25.83
2023-02-11T15:12:57.306Z,24.90
2023-02-11T15:15:25.431Z,26.48
2023-02-11T15:17:54.170Z,25.98
2023-02-11T15:20:27.060Z,25.50
2023-02-11T15:23:00.949Z,25.08
2023-02-11T15:25:31.261Z,25.58
2023-02-11T15:28:01.213Z,24.98
2023-02-11T15:30:34.093Z,25.48
2023-02-11T15:33:05.600Z,24.85
2023-02-11T15:35:36.702Z,24.52
2023-02-11T15:38:08.014Z,25.75
2023-02-11T15:40:38.444Z,25.67
2023-02-11T15:43:08.261Z,26.75
2023-02-11T15:45:39.680Z,26.73
2023-02-11T15:48:11.591Z,26.20
2023-02-11T15:50:42.194Z,27.23
2023-02-11T15:53:31.197Z,27.58
2023-02-11T15:56:11.168Z,26.27
2023-02-11T15:58:40.132Z,26.63
2023-02-11T16:01:09.667Z,26.48
2023-02-11T16:03:37.969Z,26.52
2023-02-11T16:06:21.486Z,27.00
2023-02-11T16:09:02.705Z,26.48
2023-02-11T16:11:33.152Z,28.80
2023-02-11T16:14:03.689Z,28.77
2023-02-11T16:16:35.956Z,28.33
2023-02-11T16:19:06.284Z,29.90
2023-02-11T16:21:39.144Z,29.60
2023-02-11T16:24:18.720Z,30.67
2023-02-11T16:26:50.080Z,28.98
2023-02-11T16:29:22.089Z,29.70
2023-02-11T16:31:51.143Z,30.50
2023-02-11T16:34:21.097Z,30.00
2023-02-11T16:36:49.921Z,31.20
2023-02-11T16:39:22.493Z,32.05
2023-02-11T16:41:52.089Z,31.80
2023-02-11T16:44:20.632Z,34.28
2023-02-11T16:46:49.281Z,34.72
2023-02-11T16:49:21.728Z,33.50
2023-02-11T16:51:52.613Z,33.30
2023-02-11T16:54:22.285Z,32.10
2023-02-11T16:57:03.002Z,33.22
2023-02-11T16:59:31.031Z,33.60
2023-02-11T17:01:59.350Z,31.23
2023-02-11T17:04:30.921Z,32.33
2023-02-11T17:06:59.039Z,31.92
2023-02-11T17:09:31.093Z,30.90
2023-02-11T17:12:00.257Z,31.13
2023-02-11T17:14:28.486Z,29.25
2023-02-11T17:16:56.547Z,29.75
2023-02-11T17:19:25.108Z,33.22
2023-02-11T17:21:53.961Z,31.20
2023-02-11T17:24:22.982Z,29.55
2023-02-11T17:26:52.363Z,29.65
2023-02-11T17:29:22.302Z,32.10
2023-02-11T17:31:51.667Z,31.55
2023-02-11T17:34:20.675Z,30.00
2023-02-11T17:36:48.800Z,29.88
2023-02-11T17:39:17.424Z,31.30
2023-02-11T17:41:45.541Z,29.83
2023-02-11T17:44:16.481Z,30.40
2023-02-11T17:46:44.813Z,30.30
2023-02-11T17:49:13.253Z,31.42
2023-02-11T17:51:41.291Z,30.30
2023-02-11T17:54:12.060Z,30.50
2023-02-11T17:56:40.643Z,30.27
2023-02-11T17:59:09.785Z,29.83
2023-02-11T18:01:41.340Z,29.20
2023-02-11T18:04:11.846Z,29.70
2023-02-11T18:06:40.655Z,30.25
2023-02-11T18:09:10.915Z,31.27
2023-02-11T18:11:45.626Z,31.13
2023-02-11T18:14:16.930Z,29.25
2023-02-11T18:16:47.561Z,29.30
2023-02-11T18:19:15.710Z,29.70
2023-02-11T18:21:43.794Z,31.02
2023-02-11T18:24:11.942Z,30.10
2023-02-11T18:26:41.731Z,30.90
2023-02-11T18:29:10.242Z,29.17
2023-02-11T18:31:39.547Z,27.48
2023-02-11T18:34:10.715Z,27.67
2023-02-11T18:36:38.911Z,27.38
2023-02-11T18:39:07.308Z,29.05
2023-02-11T18:41:35.336Z,29.42
2023-02-11T18:44:04.624Z,31.77
2023-02-11T18:46:32.802Z,31.65
2023-02-11T18:49:00.915Z,32.50
2023-02-11T18:51:32.416Z,31.63
2023-02-11T18:54:01.354Z,32.95
2023-02-11T18:56:29.487Z,31.30
2023-02-11T18:59:01.261Z,31.23
2023-02-11T19:01:31.246Z,30.90
2023-02-11T19:04:02.973Z,30.33
2023-02-11T19:06:34.224Z,28.65
2023-02-11T19:09:05.459Z,30.40
2023-02-11T19:11:50.483Z,28.60
2023-02-11T19:14:22.036Z,28.20
2023-02-11T19:16:51.420Z,30.48
2023-02-11T19:19:20.352Z,29.38
2023-02-11T19:21:49.922Z,28.80
2023-02-11T19:24:19.947Z,27.85
2023-02-11T19:26:49.156Z,30.60
2023-02-11T19:29:17.694Z,29.10
2023-02-11T19:31:46.548Z,29.63
2023-02-11T19:34:19.933Z,31.30
2023-02-11T19:36:50.434Z,29.25
2023-02-11T19:39:18.660Z,28.90
2023-02-11T19:41:46.774Z,27.60
2023-02-11T19:44:16.239Z,30.48
2023-02-11T19:46:44.279Z,28.80
2023-02-11T19:49:15.546Z,28.65
2023-02-11T19:51:43.553Z,31.63
2023-02-11T19:54:12.951Z,29.23
2023-02-11T19:56:40.963Z,25.92
2023-02-11T19:59:09.136Z,26.58
2023-02-11T20:01:37.917Z,28.38
2023-02-11T20:04:06.464Z,25.88
2023-02-11T20:06:36.191Z,26.17
2023-02-11T20:09:07.384Z,25.05
2023-02-11T20:11:38.177Z,26.00
2023-02-11T20:14:06.921Z,23.55
2023-02-11T20:16:47.379Z,25.95
2023-02-11T20:19:18.522Z,24.27
2023-02-11T20:21:48.334Z,27.58
2023-02-11T20:24:16.691Z,31.48
2023-02-11T20:26:48.163Z,29.95
2023-02-11T20:29:16.655Z,31.42
2023-02-11T20:31:44.875Z,33.13
2023-02-11T20:34:13.156Z,32.08
2023-02-11T20:36:41.902Z,32.38
2023-02-11T20:39:17.148Z,34.92
2023-02-11T20:41:47.375Z,36.60
2023-02-11T20:44:15.770Z,33.03
2023-02-11T20:46:47.910Z,33.42
2023-02-11T20:49:18.938Z,33.88
2023-02-11T20:51:49.265Z,34.33
2023-02-11T20:54:19.165Z,31.48
2023-02-11T20:56:50.753Z,33.95
2023-02-11T20:59:19.342Z,34.38
2023-02-11T21:01:49.479Z,34.58
2023-02-11T21:04:19.771Z,33.45
2023-02-11T21:06:50.907Z,36.33
2023-02-11T21:09:20.980Z,33.85
2023-02-11T21:11:52.007Z,36.05
2023-02-11T21:14:22.283Z,35.40
2023-02-11T21:16:50.428Z,35.35
2023-02-11T21:19:18.586Z,36.17
2023-02-11T21:21:47.105Z,35.90
2023-02-11T21:24:15.446Z,35.90
2023-02-11T21:26:43.846Z,34.85
2023-02-11T21:29:13.659Z,35.67
2023-02-11T21:31:41.801Z,36.42
2023-02-11T21:34:11.178Z,35.20
2023-02-11T21:36:39.288Z,36.53
2023-02-11T21:39:07.370Z,38.10
2023-02-11T21:41:35.597Z,36.25
2023-02-11T21:44:03.719Z,36.90
2023-02-11T21:46:33.667Z,35.28
2023-02-11T21:49:01.828Z,34.03
2023-02-11T21:51:30.465Z,42.97
2023-02-11T21:53:59.856Z,39.17
2023-02-11T21:56:29.163Z,36.58
2023-02-11T21:58:58.885Z,36.17
2023-02-11T22:01:30.846Z,38.13
2023-02-11T22:04:00.491Z,38.22
2023-02-11T22:06:31.627Z,36.95
2023-02-11T22:09:02.725Z,38.38
2023-02-11T22:11:31.071Z,39.47
2023-02-11T22:13:59.324Z,38.58
2023-02-11T22:16:28.784Z,39.58
2023-02-11T22:18:58.996Z,36.85
2023-02-11T22:21:28.681Z,37.60
2023-02-11T22:23:57.348Z,38.90
2023-02-11T22:26:27.055Z,38.03
2023-02-11T22:28:55.646Z,41.45
2023-02-11T22:31:25.840Z,39.20
2023-02-11T22:33:54.228Z,38.83
2023-02-11T22:36:24.086Z,40.10
2023-02-11T22:38:54.506Z,41.55
2023-02-11T22:41:24.019Z,40.88
2023-02-11T22:43:52.235Z,40.40
2023-02-11T22:46:21.020Z,40.22
2023-02-11T22:48:49.962Z,40.80
2023-02-11T22:51:20.638Z,41.50
2023-02-11T22:53:54.409Z,40.20
2023-02-11T22:56:22.809Z,40.60
2023-02-11T22:58:53.301Z,39.83
2023-02-11T23:01:21.393Z,40.47
2023-02-11T23:03:49.892Z,39.42
2023-02-11T23:06:18.156Z,39.05
2023-02-11T23:08:46.767Z,38.85
2023-02-11T23:11:18.671Z,36.88
2023-02-11T23:13:48.388Z,39.92
2023-02-11T23:16:18.507Z,35.15
2023-02-11T23:18:48.129Z,38.47
2023-02-11T23:21:21.131Z,36.65
2023-02-11T23:23:50.779Z,36.83
2023-02-11T23:26:20.336Z,37.15
2023-02-11T23:28:48.734Z,36.03
2023-02-11T23:31:19.523Z,35.20
2023-02-11T23:33:49.510Z,34.75
2023-02-11T23:36:19.071Z,39.28
2023-02-11T23:38:47.345Z,40.03
2023-02-11T23:41:16.210Z,41.70
2023-02-11T23:43:51.079Z,41.25
2023-02-11T23:46:19.893Z,38.30
2023-02-11T23:48:48.021Z,38.60
2023-02-11T23:51:16.648Z,39.10
2023-02-11T23:53:45.943Z,37.35
2023-02-11T23:56:17.284Z,38.13
2023-02-11T23:58:49.469Z,38.20
